Terminal Aerodrome Forecast
Issued by NWS

Home | Current Version | Previous Version | Graphics & Text | Print | Product List | Glossary On
Versions: 1 2 3 4 5 6 7 8 9 10 11 12 13 14 15 16 17 18 19
891
FTUS43 KABR 231859 AAD
TAFPIR
TAF AMD
KPIR 231859Z 2319/2418 06014KT P6SM OVC018
     FM232300 04018G25KT 4SM -SN BLSN OVC020
     FM240200 03018G25KT 6SM -SN OVC025
     FM240700 02017G24KT P6SM OVC040
     FM241300 35011KT P6SM BKN250=

USA.gov is the U.S. government's official web portal to all federal, state and local government web resources and services.